sensor_id;sensor_type;location;lat;lon;timestamp;P1;durP1;ratioP1;P2;durP2;ratioP2
19167;SDS011;9716;53.114;18.040;2023-02-03T00:00:42;9.30;;;3.97;;
19167;SDS011;9716;53.114;18.040;2023-02-03T00:03:31;9.77;;;3.70;;
19167;SDS011;9716;53.114;18.040;2023-02-03T00:05:59;7.90;;;3.80;;
19167;SDS011;9716;53.114;18.040;2023-02-03T00:08:29;9.07;;;4.00;;
19167;SDS011;9716;53.114;18.040;2023-02-03T00:10:59;6.93;;;3.43;;
19167;SDS011;9716;53.114;18.040;2023-02-03T00:13:28;11.73;;;4.17;;
19167;SDS011;9716;53.114;18.040;2023-02-03T00:15:56;7.73;;;3.53;;
19167;SDS011;9716;53.114;18.040;2023-02-03T00:18:27;8.27;;;4.20;;
19167;SDS011;9716;53.114;18.040;2023-02-03T00:20:55;9.13;;;4.33;;
19167;SDS011;9716;53.114;18.040;2023-02-03T00:23:24;6.43;;;4.33;;
19167;SDS011;9716;53.114;18.040;2023-02-03T00:25:55;9.30;;;3.40;;
19167;SDS011;9716;53.114;18.040;2023-02-03T00:28:25;7.90;;;4.13;;
19167;SDS011;9716;53.114;18.040;2023-02-03T00:30:57;9.53;;;4.47;;
19167;SDS011;9716;53.114;18.040;2023-02-03T00:33:25;7.93;;;3.90;;
19167;SDS011;9716;53.114;18.040;2023-02-03T00:35:54;6.57;;;3.87;;
19167;SDS011;9716;53.114;18.040;2023-02-03T00:38:25;7.07;;;3.20;;
19167;SDS011;9716;53.114;18.040;2023-02-03T00:40:54;9.50;;;3.80;;
19167;SDS011;9716;53.114;18.040;2023-02-03T00:43:22;7.37;;;4.30;;
19167;SDS011;9716;53.114;18.040;2023-02-03T00:45:52;8.20;;;4.43;;
19167;SDS011;9716;53.114;18.040;2023-02-03T00:48:21;9.97;;;4.23;;
19167;SDS011;9716;53.114;18.040;2023-02-03T00:50:49;6.90;;;3.43;;
19167;SDS011;9716;53.114;18.040;2023-02-03T00:53:17;11.10;;;4.63;;
19167;SDS011;9716;53.114;18.040;2023-02-03T00:55:46;8.57;;;3.67;;
19167;SDS011;9716;53.114;18.040;2023-02-03T00:58:14;7.90;;;4.10;;
19167;SDS011;9716;53.114;18.040;2023-02-03T01:00:43;8.50;;;4.50;;
19167;SDS011;9716;53.114;18.040;2023-02-03T01:03:12;8.47;;;4.17;;
19167;SDS011;9716;53.114;18.040;2023-02-03T01:05:41;6.43;;;3.47;;
19167;SDS011;9716;53.114;18.040;2023-02-03T01:08:09;7.23;;;3.53;;
19167;SDS011;9716;53.114;18.040;2023-02-03T01:10:38;8.90;;;4.00;;
19167;SDS011;9716;53.114;18.040;2023-02-03T01:13:06;5.83;;;3.47;;
19167;SDS011;9716;53.114;18.040;2023-02-03T01:15:35;8.80;;;3.90;;
19167;SDS011;9716;53.114;18.040;2023-02-03T01:18:03;5.67;;;3.00;;
19167;SDS011;9716;53.114;18.040;2023-02-03T01:20:33;8.27;;;4.00;;
19167;SDS011;9716;53.114;18.040;2023-02-03T01:23:02;7.13;;;3.57;;
19167;SDS011;9716;53.114;18.040;2023-02-03T01:25:30;8.50;;;3.70;;
19167;SDS011;9716;53.114;18.040;2023-02-03T01:28:01;5.23;;;3.00;;
19167;SDS011;9716;53.114;18.040;2023-02-03T01:30:31;6.67;;;3.30;;
19167;SDS011;9716;53.114;18.040;2023-02-03T01:33:00;10.23;;;4.00;;
19167;SDS011;9716;53.114;18.040;2023-02-03T01:35:28;9.63;;;3.20;;
19167;SDS011;9716;53.114;18.040;2023-02-03T01:37:58;6.90;;;3.93;;
19167;SDS011;9716;53.114;18.040;2023-02-03T01:40:27;5.57;;;2.97;;
19167;SDS011;9716;53.114;18.040;2023-02-03T01:42:55;5.37;;;2.97;;
19167;SDS011;9716;53.114;18.040;2023-02-03T01:45:24;5.77;;;3.70;;
19167;SDS011;9716;53.114;18.040;2023-02-03T01:47:53;12.00;;;3.33;;
19167;SDS011;9716;53.114;18.040;2023-02-03T01:50:24;6.60;;;3.33;;
19167;SDS011;9716;53.114;18.040;2023-02-03T01:52:59;8.10;;;2.73;;
19167;SDS011;9716;53.114;18.040;2023-02-03T01:55:30;5.57;;;3.33;;
19167;SDS011;9716;53.114;18.040;2023-02-03T01:58:02;7.40;;;3.20;;
19167;SDS011;9716;53.114;18.040;2023-02-03T02:00:34;8.47;;;3.23;;
19167;SDS011;9716;53.114;18.040;2023-02-03T02:03:03;4.53;;;2.83;;
19167;SDS011;9716;53.114;18.040;2023-02-03T02:05:33;5.07;;;2.97;;
19167;SDS011;9716;53.114;18.040;2023-02-03T02:08:07;5.40;;;3.07;;
19167;SDS011;9716;53.114;18.040;2023-02-03T02:10:37;8.03;;;2.80;;
19167;SDS011;9716;53.114;18.040;2023-02-03T02:13:06;8.27;;;3.27;;
19167;SDS011;9716;53.114;18.040;2023-02-03T02:15:38;7.73;;;4.03;;
19167;SDS011;9716;53.114;18.040;2023-02-03T02:18:33;5.17;;;3.33;;
19167;SDS011;9716;53.114;18.040;2023-02-03T02:33:42;6.00;;;3.07;;
19167;SDS011;9716;53.114;18.040;2023-02-03T02:36:20;8.70;;;2.97;;
19167;SDS011;9716;53.114;18.040;2023-02-03T02:38:56;7.87;;;3.30;;
19167;SDS011;9716;53.114;18.040;2023-02-03T02:41:30;6.00;;;3.07;;
19167;SDS011;9716;53.114;18.040;2023-02-03T02:44:06;5.93;;;3.37;;
19167;SDS011;9716;53.114;18.040;2023-02-03T02:46:39;6.57;;;3.30;;
19167;SDS011;9716;53.114;18.040;2023-02-03T02:49:12;10.07;;;3.10;;
19167;SDS011;9716;53.114;18.040;2023-02-03T02:51:45;6.27;;;2.97;;
19167;SDS011;9716;53.114;18.040;2023-02-03T02:54:15;9.10;;;4.23;;
19167;SDS011;9716;53.114;18.040;2023-02-03T02:56:49;6.93;;;3.17;;
19167;SDS011;9716;53.114;18.040;2023-02-03T02:59:21;10.63;;;3.37;;
19167;SDS011;9716;53.114;18.040;2023-02-03T03:01:50;5.27;;;3.03;;
19167;SDS011;9716;53.114;18.040;2023-02-03T03:04:20;7.60;;;3.87;;
19167;SDS011;9716;53.114;18.040;2023-02-03T03:06:52;5.93;;;3.27;;
19167;SDS011;9716;53.114;18.040;2023-02-03T03:09:26;15.03;;;3.70;;
19167;SDS011;9716;53.114;18.040;2023-02-03T03:12:03;13.80;;;3.10;;
19167;SDS011;9716;53.114;18.040;2023-02-03T03:14:35;6.90;;;3.30;;
19167;SDS011;9716;53.114;18.040;2023-02-03T03:17:06;8.10;;;3.27;;
19167;SDS011;9716;53.114;18.040;2023-02-03T03:19:40;10.03;;;3.53;;
19167;SDS011;9716;53.114;18.040;2023-02-03T03:22:32;9.63;;;3.13;;
19167;SDS011;9716;53.114;18.040;2023-02-03T03:25:05;4.27;;;3.20;;
19167;SDS011;9716;53.114;18.040;2023-02-03T03:27:55;5.20;;;3.00;;
19167;SDS011;9716;53.114;18.040;2023-02-03T03:30:28;5.63;;;3.30;;
19167;SDS011;9716;53.114;18.040;2023-02-03T03:33:01;6.20;;;4.00;;
19167;SDS011;9716;53.114;18.040;2023-02-03T03:35:32;7.57;;;3.50;;
19167;SDS011;9716;53.114;18.040;2023-02-03T03:38:07;7.00;;;3.17;;
19167;SDS011;9716;53.114;18.040;2023-02-03T03:40:40;12.00;;;4.10;;
19167;SDS011;9716;53.114;18.040;2023-02-03T03:43:29;7.03;;;3.73;;
19167;SDS011;9716;53.114;18.040;2023-02-03T03:46:02;7.63;;;3.07;;
19167;SDS011;9716;53.114;18.040;2023-02-03T03:48:37;9.73;;;3.80;;
19167;SDS011;9716;53.114;18.040;2023-02-03T03:51:11;8.83;;;3.60;;
19167;SDS011;9716;53.114;18.040;2023-02-03T03:53:43;3.77;;;2.70;;
19167;SDS011;9716;53.114;18.040;2023-02-03T03:56:15;6.60;;;3.53;;
19167;SDS011;9716;53.114;18.040;2023-02-03T03:58:46;6.27;;;3.97;;
19167;SDS011;9716;53.114;18.040;2023-02-03T04:01:16;6.83;;;3.70;;
19167;SDS011;9716;53.114;18.040;2023-02-03T04:03:46;9.37;;;3.60;;
19167;SDS011;9716;53.114;18.040;2023-02-03T04:06:18;5.17;;;3.60;;
19167;SDS011;9716;53.114;18.040;2023-02-03T04:08:46;8.20;;;3.43;;
19167;SDS011;9716;53.114;18.040;2023-02-03T04:11:15;8.40;;;4.17;;
19167;SDS011;9716;53.114;18.040;2023-02-03T04:14:03;5.27;;;3.23;;
19167;SDS011;9716;53.114;18.040;2023-02-03T04:16:31;6.63;;;3.33;;
19167;SDS011;9716;53.114;18.040;2023-02-03T04:19:00;6.30;;;3.40;;
19167;SDS011;9716;53.114;18.040;2023-02-03T04:21:30;14.60;;;4.50;;
19167;SDS011;9716;53.114;18.040;2023-02-03T04:23:58;6.47;;;3.40;;
19167;SDS011;9716;53.114;18.040;2023-02-03T04:26:27;14.77;;;4.27;;
19167;SDS011;9716;53.114;18.040;2023-02-03T04:28:55;8.23;;;3.20;;
19167;SDS011;9716;53.114;18.040;2023-02-03T04:31:24;6.20;;;3.10;;
19167;SDS011;9716;53.114;18.040;2023-02-03T04:33:53;5.63;;;3.13;;
19167;SDS011;9716;53.114;18.040;2023-02-03T04:36:21;8.53;;;3.90;;
19167;SDS011;9716;53.114;18.040;2023-02-03T04:38:51;9.77;;;4.30;;
19167;SDS011;9716;53.114;18.040;2023-02-03T04:41:19;12.13;;;5.07;;
19167;SDS011;9716;53.114;18.040;2023-02-03T04:43:48;7.53;;;3.43;;
19167;SDS011;9716;53.114;18.040;2023-02-03T04:46:16;9.80;;;3.47;;
19167;SDS011;9716;53.114;18.040;2023-02-03T04:48:45;8.87;;;3.63;;
19167;SDS011;9716;53.114;18.040;2023-02-03T04:51:13;15.20;;;3.83;;
19167;SDS011;9716;53.114;18.040;2023-02-03T04:53:42;11.87;;;3.57;;
19167;SDS011;9716;53.114;18.040;2023-02-03T04:56:12;9.33;;;4.03;;
19167;SDS011;9716;53.114;18.040;2023-02-03T04:58:41;7.53;;;3.43;;
19167;SDS011;9716;53.114;18.040;2023-02-03T05:01:10;15.00;;;3.87;;
19167;SDS011;9716;53.114;18.040;2023-02-03T05:03:39;12.63;;;3.50;;
19167;SDS011;9716;53.114;18.040;2023-02-03T05:06:07;5.23;;;3.23;;
19167;SDS011;9716;53.114;18.040;2023-02-03T05:08:36;7.83;;;3.77;;
19167;SDS011;9716;53.114;18.040;2023-02-03T05:11:04;10.33;;;3.83;;
19167;SDS011;9716;53.114;18.040;2023-02-03T05:13:34;8.03;;;3.47;;
19167;SDS011;9716;53.114;18.040;2023-02-03T05:16:03;7.03;;;3.53;;
19167;SDS011;9716;53.114;18.040;2023-02-03T05:18:32;10.67;;;3.70;;
19167;SDS011;9716;53.114;18.040;2023-02-03T05:21:00;9.40;;;3.80;;
19167;SDS011;9716;53.114;18.040;2023-02-03T05:23:29;6.03;;;3.43;;
19167;SDS011;9716;53.114;18.040;2023-02-03T05:25:57;6.10;;;3.83;;
19167;SDS011;9716;53.114;18.040;2023-02-03T05:28:25;9.97;;;3.70;;
19167;SDS011;9716;53.114;18.040;2023-02-03T05:30:56;7.33;;;3.67;;
19167;SDS011;9716;53.114;18.040;2023-02-03T05:33:25;10.17;;;4.03;;
19167;SDS011;9716;53.114;18.040;2023-02-03T05:35:53;6.07;;;3.07;;
19167;SDS011;9716;53.114;18.040;2023-02-03T05:38:22;6.37;;;3.30;;
19167;SDS011;9716;53.114;18.040;2023-02-03T05:40:51;7.13;;;4.03;;
19167;SDS011;9716;53.114;18.040;2023-02-03T05:43:49;9.27;;;3.97;;
19167;SDS011;9716;53.114;18.040;2023-02-03T05:46:18;8.10;;;3.87;;
19167;SDS011;9716;53.114;18.040;2023-02-03T05:48:47;12.17;;;3.53;;
19167;SDS011;9716;53.114;18.040;2023-02-03T05:51:15;5.87;;;2.97;;
19167;SDS011;9716;53.114;18.040;2023-02-03T05:53:44;8.17;;;3.20;;
19167;SDS011;9716;53.114;18.040;2023-02-03T05:56:12;6.07;;;3.33;;
19167;SDS011;9716;53.114;18.040;2023-02-03T05:58:41;11.80;;;3.77;;
19167;SDS011;9716;53.114;18.040;2023-02-03T06:01:09;6.20;;;3.40;;
19167;SDS011;9716;53.114;18.040;2023-02-03T06:03:40;8.63;;;3.63;;
19167;SDS011;9716;53.114;18.040;2023-02-03T06:06:11;6.03;;;3.43;;
19167;SDS011;9716;53.114;18.040;2023-02-03T06:08:40;4.83;;;3.03;;
19167;SDS011;9716;53.114;18.040;2023-02-03T06:11:09;6.83;;;3.00;;
19167;SDS011;9716;53.114;18.040;2023-02-03T06:13:38;4.57;;;3.10;;
19167;SDS011;9716;53.114;18.040;2023-02-03T06:16:07;8.27;;;4.40;;
19167;SDS011;9716;53.114;18.040;2023-02-03T06:18:35;6.20;;;3.10;;
19167;SDS011;9716;53.114;18.040;2023-02-03T06:21:05;12.23;;;3.70;;
19167;SDS011;9716;53.114;18.040;2023-02-03T06:23:34;10.07;;;3.20;;
19167;SDS011;9716;53.114;18.040;2023-02-03T06:26:02;5.73;;;3.50;;
19167;SDS011;9716;53.114;18.040;2023-02-03T06:28:31;7.23;;;3.27;;
19167;SDS011;9716;53.114;18.040;2023-02-03T06:30:59;8.17;;;3.10;;
19167;SDS011;9716;53.114;18.040;2023-02-03T06:33:29;4.97;;;3.20;;
19167;SDS011;9716;53.114;18.040;2023-02-03T06:35:57;11.43;;;3.57;;
19167;SDS011;9716;53.114;18.040;2023-02-03T06:38:28;9.47;;;3.47;;
19167;SDS011;9716;53.114;18.040;2023-02-03T06:40:56;5.70;;;3.33;;
19167;SDS011;9716;53.114;18.040;2023-02-03T06:43:28;6.30;;;3.23;;
19167;SDS011;9716;53.114;18.040;2023-02-03T06:45:56;11.23;;;3.87;;
19167;SDS011;9716;53.114;18.040;2023-02-03T06:48:25;7.03;;;3.40;;
19167;SDS011;9716;53.114;18.040;2023-02-03T06:50:53;9.17;;;3.67;;
19167;SDS011;9716;53.114;18.040;2023-02-03T06:53:22;8.17;;;3.73;;
19167;SDS011;9716;53.114;18.040;2023-02-03T06:55:52;7.83;;;3.80;;
19167;SDS011;9716;53.114;18.040;2023-02-03T06:58:21;8.00;;;4.30;;
19167;SDS011;9716;53.114;18.040;2023-02-03T07:00:50;7.73;;;4.40;;
19167;SDS011;9716;53.114;18.040;2023-02-03T07:03:22;12.27;;;4.73;;
19167;SDS011;9716;53.114;18.040;2023-02-03T07:05:50;8.37;;;3.97;;
19167;SDS011;9716;53.114;18.040;2023-02-03T07:08:19;12.33;;;4.73;;
19167;SDS011;9716;53.114;18.040;2023-02-03T07:10:53;9.30;;;4.43;;
19167;SDS011;9716;53.114;18.040;2023-02-03T07:13:21;14.60;;;4.53;;
19167;SDS011;9716;53.114;18.040;2023-02-03T07:15:50;14.63;;;5.10;;
19167;SDS011;9716;53.114;18.040;2023-02-03T07:18:20;9.47;;;4.50;;
19167;SDS011;9716;53.114;18.040;2023-02-03T07:21:10;12.07;;;4.73;;
19167;SDS011;9716;53.114;18.040;2023-02-03T07:23:39;9.07;;;5.00;;
19167;SDS011;9716;53.114;18.040;2023-02-03T07:26:09;8.33;;;4.70;;
19167;SDS011;9716;53.114;18.040;2023-02-03T07:28:38;9.60;;;5.00;;
19167;SDS011;9716;53.114;18.040;2023-02-03T07:31:06;10.90;;;5.50;;
19167;SDS011;9716;53.114;18.040;2023-02-03T07:33:37;11.00;;;5.00;;
19167;SDS011;9716;53.114;18.040;2023-02-03T07:36:06;9.67;;;4.80;;
19167;SDS011;9716;53.114;18.040;2023-02-03T07:38:35;7.17;;;4.13;;
19167;SDS011;9716;53.114;18.040;2023-02-03T07:41:04;12.63;;;5.80;;
19167;SDS011;9716;53.114;18.040;2023-02-03T07:43:35;13.23;;;5.17;;
19167;SDS011;9716;53.114;18.040;2023-02-03T07:46:04;14.53;;;5.27;;
19167;SDS011;9716;53.114;18.040;2023-02-03T07:48:33;9.87;;;4.80;;
19167;SDS011;9716;53.114;18.040;2023-02-03T07:51:01;9.47;;;4.13;;
19167;SDS011;9716;53.114;18.040;2023-02-03T07:53:30;10.90;;;4.70;;
19167;SDS011;9716;53.114;18.040;2023-02-03T07:55:59;10.80;;;5.33;;
19167;SDS011;9716;53.114;18.040;2023-02-03T07:58:28;10.67;;;6.10;;
19167;SDS011;9716;53.114;18.040;2023-02-03T08:01:00;11.97;;;4.87;;
19167;SDS011;9716;53.114;18.040;2023-02-03T08:03:28;11.27;;;6.13;;
19167;SDS011;9716;53.114;18.040;2023-02-03T08:05:57;9.67;;;5.87;;
19167;SDS011;9716;53.114;18.040;2023-02-03T08:08:26;10.10;;;5.20;;
19167;SDS011;9716;53.114;18.040;2023-02-03T08:10:55;12.43;;;4.33;;
19167;SDS011;9716;53.114;18.040;2023-02-03T08:13:24;10.03;;;4.40;;
19167;SDS011;9716;53.114;18.040;2023-02-03T08:15:53;10.17;;;5.27;;
19167;SDS011;9716;53.114;18.040;2023-02-03T08:18:23;13.20;;;4.80;;
19167;SDS011;9716;53.114;18.040;2023-02-03T08:20:52;12.20;;;5.00;;
19167;SDS011;9716;53.114;18.040;2023-02-03T08:23:21;12.27;;;4.83;;
19167;SDS011;9716;53.114;18.040;2023-02-03T08:25:49;7.67;;;4.17;;
19167;SDS011;9716;53.114;18.040;2023-02-03T08:28:18;13.70;;;4.97;;
19167;SDS011;9716;53.114;18.040;2023-02-03T08:30:47;16.70;;;5.03;;
19167;SDS011;9716;53.114;18.040;2023-02-03T08:33:16;8.93;;;4.50;;
19167;SDS011;9716;53.114;18.040;2023-02-03T08:36:04;9.20;;;5.13;;
19167;SDS011;9716;53.114;18.040;2023-02-03T08:38:33;8.87;;;5.13;;
19167;SDS011;9716;53.114;18.040;2023-02-03T08:41:07;13.00;;;5.07;;
19167;SDS011;9716;53.114;18.040;2023-02-03T08:43:37;12.80;;;6.03;;
19167;SDS011;9716;53.114;18.040;2023-02-03T08:46:07;11.40;;;5.23;;
19167;SDS011;9716;53.114;18.040;2023-02-03T08:48:38;10.30;;;4.67;;
19167;SDS011;9716;53.114;18.040;2023-02-03T08:51:12;11.77;;;5.40;;
19167;SDS011;9716;53.114;18.040;2023-02-03T08:53:43;16.30;;;6.13;;
19167;SDS011;9716;53.114;18.040;2023-02-03T08:56:11;12.60;;;6.60;;
19167;SDS011;9716;53.114;18.040;2023-02-03T08:58:40;11.43;;;6.07;;
19167;SDS011;9716;53.114;18.040;2023-02-03T09:01:09;14.50;;;7.03;;
19167;SDS011;9716;53.114;18.040;2023-02-03T09:03:39;11.77;;;6.33;;
19167;SDS011;9716;53.114;18.040;2023-02-03T09:06:08;12.27;;;6.70;;
19167;SDS011;9716;53.114;18.040;2023-02-03T09:08:40;12.97;;;6.57;;
19167;SDS011;9716;53.114;18.040;2023-02-03T09:11:09;15.67;;;7.20;;
19167;SDS011;9716;53.114;18.040;2023-02-03T09:13:39;13.90;;;5.80;;
19167;SDS011;9716;53.114;18.040;2023-02-03T09:16:11;12.97;;;7.30;;
19167;SDS011;9716;53.114;18.040;2023-02-03T09:18:40;12.27;;;6.07;;
19167;SDS011;9716;53.114;18.040;2023-02-03T09:21:10;15.63;;;7.03;;
19167;SDS011;9716;53.114;18.040;2023-02-03T09:24:00;15.80;;;5.80;;
19167;SDS011;9716;53.114;18.040;2023-02-03T09:26:30;10.47;;;6.10;;
19167;SDS011;9716;53.114;18.040;2023-02-03T09:29:01;13.97;;;6.63;;
19167;SDS011;9716;53.114;18.040;2023-02-03T09:31:30;10.83;;;6.30;;
19167;SDS011;9716;53.114;18.040;2023-02-03T09:34:01;9.37;;;5.57;;
19167;SDS011;9716;53.114;18.040;2023-02-03T09:36:30;13.80;;;6.03;;
19167;SDS011;9716;53.114;18.040;2023-02-03T09:39:01;12.37;;;6.20;;
19167;SDS011;9716;53.114;18.040;2023-02-03T09:41:35;9.57;;;5.43;;
19167;SDS011;9716;53.114;18.040;2023-02-03T09:44:28;10.90;;;5.57;;
19167;SDS011;9716;53.114;18.040;2023-02-03T09:47:04;12.13;;;5.67;;
19167;SDS011;9716;53.114;18.040;2023-02-03T09:49:41;14.53;;;5.57;;
19167;SDS011;9716;53.114;18.040;2023-02-03T09:52:13;11.97;;;6.27;;
19167;SDS011;9716;53.114;18.040;2023-02-03T09:54:49;11.77;;;4.97;;
19167;SDS011;9716;53.114;18.040;2023-02-03T09:57:23;8.23;;;5.30;;
19167;SDS011;9716;53.114;18.040;2023-02-03T10:00:01;14.13;;;5.17;;
19167;SDS011;9716;53.114;18.040;2023-02-03T10:02:44;10.87;;;5.87;;
19167;SDS011;9716;53.114;18.040;2023-02-03T10:05:21;13.27;;;4.80;;
19167;SDS011;9716;53.114;18.040;2023-02-03T10:08:01;9.60;;;5.50;;
19167;SDS011;9716;53.114;18.040;2023-02-03T10:10:39;13.33;;;5.53;;
19167;SDS011;9716;53.114;18.040;2023-02-03T10:13:18;6.20;;;4.63;;
19167;SDS011;9716;53.114;18.040;2023-02-03T10:15:58;10.37;;;5.83;;
19167;SDS011;9716;53.114;18.040;2023-02-03T10:18:54;7.40;;;4.83;;
19167;SDS011;9716;53.114;18.040;2023-02-03T10:21:33;8.97;;;5.37;;
19167;SDS011;9716;53.114;18.040;2023-02-03T10:24:14;10.20;;;5.07;;
19167;SDS011;9716;53.114;18.040;2023-02-03T10:26:50;11.73;;;6.37;;
19167;SDS011;9716;53.114;18.040;2023-02-03T10:29:22;14.60;;;6.03;;
19167;SDS011;9716;53.114;18.040;2023-02-03T10:31:59;10.10;;;5.50;;
19167;SDS011;9716;53.114;18.040;2023-02-03T10:34:28;9.07;;;5.80;;
19167;SDS011;9716;53.114;18.040;2023-02-03T10:37:00;8.13;;;4.90;;
19167;SDS011;9716;53.114;18.040;2023-02-03T10:39:35;13.57;;;6.87;;
19167;SDS011;9716;53.114;18.040;2023-02-03T10:42:09;15.43;;;6.53;;
19167;SDS011;9716;53.114;18.040;2023-02-03T10:44:39;13.07;;;6.60;;
19167;SDS011;9716;53.114;18.040;2023-02-03T10:47:14;8.97;;;5.73;;
19167;SDS011;9716;53.114;18.040;2023-02-03T10:49:49;10.87;;;5.53;;
19167;SDS011;9716;53.114;18.040;2023-02-03T10:52:26;11.10;;;6.20;;
19167;SDS011;9716;53.114;18.040;2023-02-03T10:54:56;10.90;;;5.50;;
19167;SDS011;9716;53.114;18.040;2023-02-03T10:57:28;12.57;;;5.33;;
19167;SDS011;9716;53.114;18.040;2023-02-03T11:00:07;13.50;;;7.13;;
19167;SDS011;9716;53.114;18.040;2023-02-03T11:02:53;13.03;;;5.60;;
19167;SDS011;9716;53.114;18.040;2023-02-03T11:05:23;7.30;;;5.30;;
19167;SDS011;9716;53.114;18.040;2023-02-03T11:07:53;10.53;;;5.73;;
19167;SDS011;9716;53.114;18.040;2023-02-03T11:10:25;13.13;;;6.53;;
19167;SDS011;9716;53.114;18.040;2023-02-03T11:13:11;14.10;;;6.83;;
19167;SDS011;9716;53.114;18.040;2023-02-03T11:15:53;14.53;;;7.20;;
19167;SDS011;9716;53.114;18.040;2023-02-03T11:18:35;13.27;;;7.40;;
19167;SDS011;9716;53.114;18.040;2023-02-03T11:21:08;10.90;;;6.47;;
19167;SDS011;9716;53.114;18.040;2023-02-03T11:23:46;13.13;;;7.10;;
19167;SDS011;9716;53.114;18.040;2023-02-03T11:26:18;10.20;;;6.70;;
19167;SDS011;9716;53.114;18.040;2023-02-03T11:28:52;9.60;;;6.20;;
19167;SDS011;9716;53.114;18.040;2023-02-03T11:31:23;14.33;;;6.73;;
19167;SDS011;9716;53.114;18.040;2023-02-03T11:33:55;11.73;;;5.97;;
19167;SDS011;9716;53.114;18.040;2023-02-03T11:36:29;12.60;;;6.30;;
19167;SDS011;9716;53.114;18.040;2023-02-03T11:41:54;10.47;;;5.83;;
19167;SDS011;9716;53.114;18.040;2023-02-03T11:44:26;11.80;;;5.43;;
19167;SDS011;9716;53.114;18.040;2023-02-03T11:46:59;16.13;;;6.40;;
19167;SDS011;9716;53.114;18.040;2023-02-03T11:49:49;13.43;;;5.80;;
19167;SDS011;9716;53.114;18.040;2023-02-03T11:53:01;12.17;;;5.40;;
19167;SDS011;9716;53.114;18.040;2023-02-03T11:55:53;13.80;;;5.87;;
19167;SDS011;9716;53.114;18.040;2023-02-03T11:58:43;8.00;;;4.83;;
19167;SDS011;9716;53.114;18.040;2023-02-03T12:01:27;11.80;;;5.47;;
19167;SDS011;9716;53.114;18.040;2023-02-03T12:04:14;10.77;;;5.50;;
19167;SDS011;9716;53.114;18.040;2023-02-03T12:07:18;10.03;;;5.73;;
19167;SDS011;9716;53.114;18.040;2023-02-03T12:10:01;6.87;;;4.53;;
19167;SDS011;9716;53.114;18.040;2023-02-03T12:12:42;14.10;;;4.97;;
19167;SDS011;9716;53.114;18.040;2023-02-03T12:15:23;8.57;;;4.40;;
19167;SDS011;9716;53.114;18.040;2023-02-03T12:18:15;9.67;;;4.60;;
19167;SDS011;9716;53.114;18.040;2023-02-03T12:21:00;8.27;;;5.20;;
19167;SDS011;9716;53.114;18.040;2023-02-03T12:23:43;9.40;;;4.40;;
19167;SDS011;9716;53.114;18.040;2023-02-03T12:26:22;9.03;;;5.27;;
19167;SDS011;9716;53.114;18.040;2023-02-03T12:28:57;8.27;;;4.43;;
19167;SDS011;9716;53.114;18.040;2023-02-03T12:31:33;13.30;;;4.87;;
19167;SDS011;9716;53.114;18.040;2023-02-03T12:34:11;10.00;;;5.73;;
19167;SDS011;9716;53.114;18.040;2023-02-03T12:36:46;9.63;;;5.03;;
19167;SDS011;9716;53.114;18.040;2023-02-03T12:39:22;8.57;;;4.77;;
19167;SDS011;9716;53.114;18.040;2023-02-03T12:41:57;9.03;;;4.80;;
19167;SDS011;9716;53.114;18.040;2023-02-03T12:44:31;8.17;;;4.83;;
19167;SDS011;9716;53.114;18.040;2023-02-03T12:47:10;8.47;;;4.83;;
19167;SDS011;9716;53.114;18.040;2023-02-03T12:49:52;7.70;;;5.00;;
19167;SDS011;9716;53.114;18.040;2023-02-03T12:52:26;10.73;;;4.77;;
19167;SDS011;9716;53.114;18.040;2023-02-03T12:55:02;9.73;;;4.43;;
19167;SDS011;9716;53.114;18.040;2023-02-03T12:57:43;8.97;;;5.13;;
19167;SDS011;9716;53.114;18.040;2023-02-03T13:00:17;8.83;;;5.03;;
19167;SDS011;9716;53.114;18.040;2023-02-03T13:03:12;12.03;;;5.03;;
19167;SDS011;9716;53.114;18.040;2023-02-03T13:05:51;7.53;;;4.73;;
19167;SDS011;9716;53.114;18.040;2023-02-03T13:08:33;6.07;;;4.27;;
19167;SDS011;9716;53.114;18.040;2023-02-03T13:11:09;8.53;;;5.50;;
19167;SDS011;9716;53.114;18.040;2023-02-03T13:13:47;9.57;;;5.03;;
19167;SDS011;9716;53.114;18.040;2023-02-03T13:16:25;9.83;;;4.77;;
19167;SDS011;9716;53.114;18.040;2023-02-03T13:19:01;10.10;;;5.60;;
19167;SDS011;9716;53.114;18.040;2023-02-03T13:21:35;11.60;;;5.80;;
19167;SDS011;9716;53.114;18.040;2023-02-03T13:24:08;12.10;;;5.67;;
19167;SDS011;9716;53.114;18.040;2023-02-03T13:26:52;11.37;;;5.27;;
19167;SDS011;9716;53.114;18.040;2023-02-03T13:29:52;8.70;;;5.80;;
19167;SDS011;9716;53.114;18.040;2023-02-03T13:32:38;11.87;;;5.80;;
19167;SDS011;9716;53.114;18.040;2023-02-03T13:35:21;11.80;;;5.93;;
19167;SDS011;9716;53.114;18.040;2023-02-03T13:38:09;8.73;;;4.97;;
19167;SDS011;9716;53.114;18.040;2023-02-03T13:41:03;8.27;;;4.80;;
19167;SDS011;9716;53.114;18.040;2023-02-03T13:43:38;11.03;;;4.70;;
19167;SDS011;9716;53.114;18.040;2023-02-03T13:46:17;9.00;;;5.40;;
19167;SDS011;9716;53.114;18.040;2023-02-03T13:48:48;7.47;;;4.53;;
19167;SDS011;9716;53.114;18.040;2023-02-03T13:51:20;9.93;;;4.63;;
19167;SDS011;9716;53.114;18.040;2023-02-03T13:53:57;9.80;;;4.27;;
19167;SDS011;9716;53.114;18.040;2023-02-03T13:56:27;11.27;;;5.70;;
19167;SDS011;9716;53.114;18.040;2023-02-03T13:59:00;7.63;;;4.77;;
19167;SDS011;9716;53.114;18.040;2023-02-03T14:01:32;7.07;;;4.00;;
19167;SDS011;9716;53.114;18.040;2023-02-03T14:04:03;7.97;;;3.80;;
19167;SDS011;9716;53.114;18.040;2023-02-03T14:09:36;9.63;;;4.07;;
19167;SDS011;9716;53.114;18.040;2023-02-03T14:15:16;7.83;;;4.37;;
19167;SDS011;9716;53.114;18.040;2023-02-03T14:17:53;7.07;;;3.77;;
19167;SDS011;9716;53.114;18.040;2023-02-03T14:20:38;6.97;;;4.30;;
19167;SDS011;9716;53.114;18.040;2023-02-03T14:23:15;9.40;;;5.30;;
19167;SDS011;9716;53.114;18.040;2023-02-03T14:25:55;6.23;;;3.70;;
19167;SDS011;9716;53.114;18.040;2023-02-03T14:28:35;7.03;;;4.27;;
19167;SDS011;9716;53.114;18.040;2023-02-03T14:31:11;10.47;;;4.30;;
19167;SDS011;9716;53.114;18.040;2023-02-03T14:36:39;6.20;;;4.10;;
19167;SDS011;9716;53.114;18.040;2023-02-03T14:42:26;7.57;;;4.00;;
19167;SDS011;9716;53.114;18.040;2023-02-03T14:45:10;7.37;;;4.47;;
19167;SDS011;9716;53.114;18.040;2023-02-03T14:47:48;8.37;;;4.43;;
19167;SDS011;9716;53.114;18.040;2023-02-03T14:50:31;7.73;;;4.20;;
19167;SDS011;9716;53.114;18.040;2023-02-03T14:53:14;7.17;;;4.30;;
19167;SDS011;9716;53.114;18.040;2023-02-03T14:56:10;6.63;;;4.13;;
19167;SDS011;9716;53.114;18.040;2023-02-03T14:58:46;15.07;;;4.70;;
19167;SDS011;9716;53.114;18.040;2023-02-03T15:01:24;6.37;;;4.60;;
19167;SDS011;9716;53.114;18.040;2023-02-03T15:04:20;8.83;;;4.33;;
19167;SDS011;9716;53.114;18.040;2023-02-03T15:06:51;8.27;;;4.50;;
19167;SDS011;9716;53.114;18.040;2023-02-03T15:09:22;7.37;;;4.70;;
19167;SDS011;9716;53.114;18.040;2023-02-03T15:11:55;14.47;;;5.97;;
19167;SDS011;9716;53.114;18.040;2023-02-03T15:14:26;6.87;;;4.50;;
19167;SDS011;9716;53.114;18.040;2023-02-03T15:16:57;13.43;;;5.00;;
19167;SDS011;9716;53.114;18.040;2023-02-03T15:19:30;11.40;;;5.23;;
19167;SDS011;9716;53.114;18.040;2023-02-03T15:22:01;11.17;;;5.37;;
19167;SDS011;9716;53.114;18.040;2023-02-03T15:24:33;15.33;;;6.23;;
19167;SDS011;9716;53.114;18.040;2023-02-03T15:27:03;10.57;;;5.00;;
19167;SDS011;9716;53.114;18.040;2023-02-03T15:29:33;8.00;;;5.07;;
19167;SDS011;9716;53.114;18.040;2023-02-03T15:32:04;13.77;;;5.70;;
19167;SDS011;9716;53.114;18.040;2023-02-03T15:34:39;13.30;;;4.83;;
19167;SDS011;9716;53.114;18.040;2023-02-03T15:37:12;10.53;;;5.33;;
19167;SDS011;9716;53.114;18.040;2023-02-03T15:39:47;11.97;;;5.00;;
19167;SDS011;9716;53.114;18.040;2023-02-03T15:42:26;12.17;;;5.07;;
19167;SDS011;9716;53.114;18.040;2023-02-03T15:45:00;14.67;;;4.60;;
19167;SDS011;9716;53.114;18.040;2023-02-03T15:47:33;18.00;;;4.83;;